createdAt,value
2022-09-12T00:04:12.416Z,94.16
2022-09-12T00:09:19.735Z,94.36
2022-09-12T00:14:27.756Z,94.46
2022-09-12T00:19:34.553Z,94.63
2022-09-12T00:24:42.518Z,94.85
2022-09-12T00:29:50.406Z,94.77
2022-09-12T00:34:57.125Z,94.77
2022-09-12T00:40:04.170Z,94.64
2022-09-12T00:45:10.683Z,94.59
2022-09-12T00:50:17.819Z,94.67
2022-09-12T00:55:25.931Z,94.84
2022-09-12T01:00:33.601Z,95.0
2022-09-12T01:05:41.998Z,95.26999
2022-09-12T01:10:49.683Z,95.15
2022-09-12T01:15:57.528Z,95.48
2022-09-12T01:21:05.376Z,95.25001
2022-09-12T01:26:13.398Z,95.28
2022-09-12T01:31:20.535Z,95.39001
2022-09-12T01:36:27.949Z,95.32001
2022-09-12T01:41:37.005Z,95.4
2022-09-12T01:46:44.934Z,95.54
2022-09-12T01:51:52.921Z,95.54
2022-09-12T01:56:59.735Z,95.83
2022-09-12T02:02:08.085Z,95.76
2022-09-12T02:07:15.861Z,95.78
2022-09-12T02:12:21.976Z,95.85
2022-09-12T02:17:30.498Z,95.89
2022-09-12T02:22:38.374Z,95.87001
2022-09-12T02:27:45.588Z,95.84
2022-09-12T02:32:53.838Z,95.83
2022-09-12T02:38:01.200Z,95.88
2022-09-12T02:43:08.807Z,95.67
2022-09-12T02:48:15.072Z,95.51001
2022-09-12T02:53:22.344Z,95.51001
2022-09-12T02:58:30.287Z,95.41
2022-09-12T03:03:38.513Z,95.6
2022-09-12T03:08:46.873Z,95.68
2022-09-12T03:13:54.174Z,96.05
2022-09-12T03:19:00.700Z,96.25
2022-09-12T03:24:09.691Z,96.34
2022-09-12T03:29:17.364Z,96.3
2022-09-12T03:34:24.319Z,96.34
2022-09-12T03:39:32.142Z,96.29001
2022-09-12T03:44:39.292Z,96.27
2022-09-12T03:49:47.597Z,96.24
2022-09-12T03:54:54.977Z,96.22001
2022-09-12T04:00:02.710Z,96.38
2022-09-12T04:05:11.281Z,96.23
2022-09-12T04:10:20.133Z,95.98001
2022-09-12T04:15:27.856Z,96.07
2022-09-12T04:20:41.163Z,95.97
2022-09-12T04:25:47.898Z,95.94001
2022-09-12T04:30:55.586Z,96.56
2022-09-12T04:36:02.783Z,96.32
2022-09-12T04:41:10.013Z,96.4
2022-09-12T04:46:17.856Z,96.51999
2022-09-12T04:51:25.021Z,96.58
2022-09-12T04:56:32.215Z,96.51999
2022-09-12T05:01:40.576Z,96.43001
2022-09-12T05:06:47.903Z,96.44
2022-09-12T05:11:56.408Z,96.33
2022-09-12T05:17:04.289Z,96.27
2022-09-12T05:22:18.458Z,95.93
2022-09-12T05:27:25.781Z,95.56
2022-09-12T05:32:34.173Z,95.52
2022-09-12T05:37:41.340Z,95.35
2022-09-12T05:42:48.894Z,95.30001
2022-09-12T05:47:56.399Z,95.0
2022-09-12T05:53:03.577Z,93.92
2022-09-12T05:58:12.038Z,93.75
2022-09-12T06:03:20.545Z,93.16001
2022-09-12T06:08:27.109Z,93.37001
2022-09-12T06:13:34.298Z,92.40001
2022-09-12T06:18:41.164Z,91.69001
2022-09-12T06:23:49.587Z,90.94001
2022-09-12T06:28:56.879Z,90.9
2022-09-12T06:34:04.385Z,89.81
2022-09-12T06:39:11.578Z,88.81
2022-09-12T06:44:20.670Z,89.01
2022-09-12T06:49:29.964Z,88.63
2022-09-12T06:54:37.125Z,87.86
2022-09-12T06:59:43.613Z,87.65
2022-09-12T07:04:52.049Z,87.45
2022-09-12T07:09:59.929Z,87.19001
2022-09-12T07:15:08.383Z,85.36
2022-09-12T07:20:17.452Z,84.94
2022-09-12T07:25:26.676Z,84.25
2022-09-12T07:30:34.846Z,83.45
2022-09-12T07:35:42.438Z,82.3
2022-09-12T07:40:50.313Z,79.34
2022-09-12T07:45:59.144Z,80.44001
2022-09-12T07:51:07.710Z,80.43
2022-09-12T07:56:14.650Z,81.14
2022-09-12T08:01:24.010Z,79.83
2022-09-12T08:06:30.943Z,75.2
2022-09-12T08:11:39.057Z,75.06
2022-09-12T08:16:45.659Z,76.1
2022-09-12T08:21:53.297Z,73.96
2022-09-12T08:27:00.730Z,73.82
2022-09-12T08:32:07.964Z,72.19
2022-09-12T08:37:13.821Z,72.98
2022-09-12T08:42:22.049Z,71.22
2022-09-12T08:47:29.848Z,71.56
2022-09-12T08:52:37.005Z,71.71
2022-09-12T08:57:44.523Z,70.39
2022-09-12T09:02:52.092Z,70.97
2022-09-12T09:07:59.583Z,69.9
2022-09-12T09:13:07.049Z,65.46
2022-09-12T09:18:14.638Z,62.49
2022-09-12T09:23:23.455Z,57.04
2022-09-12T09:28:30.487Z,55.7
2022-09-12T09:33:36.862Z,58.25
2022-09-12T09:38:44.062Z,58.56
2022-09-12T09:43:51.903Z,59.1
2022-09-12T09:48:58.663Z,56.82
2022-09-12T09:54:05.915Z,54.52
2022-09-12T09:59:13.356Z,52.41
2022-09-12T10:04:20.804Z,53.04
2022-09-12T10:09:27.834Z,53.41
2022-09-12T10:14:37.009Z,54.9
2022-09-12T10:19:45.770Z,55.25
2022-09-12T10:24:53.351Z,50.53
2022-09-12T10:30:02.508Z,48.11
2022-09-12T10:35:09.001Z,49.42
2022-09-12T10:40:15.584Z,54.08
2022-09-12T10:45:22.140Z,56.59
2022-09-12T10:50:31.772Z,54.56
2022-09-12T10:55:40.529Z,51.2
2022-09-12T11:00:47.965Z,50.4
2022-09-12T11:05:56.956Z,47.01
2022-09-12T11:11:04.101Z,51.25
2022-09-12T11:16:12.937Z,52.18
2022-09-12T11:21:20.746Z,55.03
2022-09-12T11:26:26.796Z,49.21
2022-09-12T11:31:35.007Z,52.87
2022-09-12T11:36:43.609Z,50.81
2022-09-12T11:41:50.415Z,50.1
2022-09-12T11:46:56.892Z,50.53
2022-09-12T11:52:04.803Z,52.08
2022-09-12T11:57:11.931Z,56.66
2022-09-12T12:02:19.820Z,54.81
2022-09-12T12:07:26.940Z,55.21
2022-09-12T12:12:34.138Z,55.36
2022-09-12T12:17:40.739Z,56.35
2022-09-12T12:22:47.960Z,56.67
2022-09-12T12:27:55.710Z,54.21
2022-09-12T12:33:02.332Z,58.06
2022-09-12T12:38:09.524Z,58.78
2022-09-12T12:43:17.291Z,58.99
2022-09-12T12:48:24.557Z,56.09
2022-09-12T12:53:31.745Z,52.6
2022-09-12T12:58:42.814Z,54.93
2022-09-12T13:03:50.005Z,53.14
2022-09-12T13:08:57.817Z,52.98
2022-09-12T13:14:05.305Z,52.43
2022-09-12T13:19:12.538Z,53.22
2022-09-12T13:24:18.918Z,55.4
2022-09-12T13:29:25.337Z,52.27
2022-09-12T13:34:33.307Z,53.07
2022-09-12T13:39:41.425Z,50.74
2022-09-12T13:44:49.235Z,54.14
2022-09-12T13:49:57.335Z,54.12
2022-09-12T13:55:06.425Z,51.06
2022-09-12T14:00:14.326Z,50.65
2022-09-12T14:05:20.867Z,50.3
2022-09-12T14:10:28.743Z,48.86
2022-09-12T14:15:39.199Z,49.12
2022-09-12T14:20:45.018Z,51.86
2022-09-12T14:25:51.595Z,51.9
2022-09-12T14:30:59.250Z,49.17
2022-09-12T14:36:06.618Z,51.54
2022-09-12T14:41:13.536Z,57.28
2022-09-12T14:46:22.616Z,57.36
2022-09-12T14:51:30.946Z,55.88
2022-09-12T14:56:37.988Z,52.72
2022-09-12T15:01:44.754Z,56.34
2022-09-12T15:06:51.785Z,59.22
2022-09-12T15:12:00.229Z,61.83
2022-09-12T15:17:07.427Z,63.91
2022-09-12T15:22:21.617Z,64.81
2022-09-12T15:27:30.085Z,66.5
2022-09-12T15:32:37.763Z,69.28
2022-09-12T15:37:45.199Z,69.53
2022-09-12T15:42:53.582Z,70.58
2022-09-12T15:48:00.683Z,71.74
2022-09-12T15:53:07.456Z,72.46
2022-09-12T15:58:14.976Z,71.14
2022-09-12T16:03:22.548Z,69.52
2022-09-12T16:08:29.841Z,70.53
2022-09-12T16:13:36.940Z,72.69001
2022-09-12T16:18:44.650Z,74.53
2022-09-12T16:23:52.583Z,74.75
2022-09-12T16:29:00.288Z,75.15
2022-09-12T16:34:08.138Z,75.46
2022-09-12T16:39:15.464Z,75.22
2022-09-12T16:44:23.229Z,78.54
2022-09-12T16:49:31.133Z,79.89
2022-09-12T16:54:37.995Z,80.91001
2022-09-12T16:59:45.532Z,81.24
2022-09-12T17:04:52.723Z,80.16001
2022-09-12T17:09:58.658Z,81.51
2022-09-12T17:15:06.092Z,80.9
2022-09-12T17:20:13.625Z,81.68
2022-09-12T17:25:20.254Z,83.46
2022-09-12T17:30:27.467Z,83.97
2022-09-12T17:35:35.769Z,85.1
2022-09-12T17:40:43.645Z,85.44001
2022-09-12T17:45:51.663Z,86.06
2022-09-12T17:50:59.419Z,86.19
2022-09-12T17:56:08.606Z,86.87
2022-09-12T18:01:17.296Z,86.05
2022-09-12T18:06:24.897Z,85.17
2022-09-12T18:11:32.082Z,86.3
2022-09-12T18:16:40.862Z,86.74
2022-09-12T18:21:48.132Z,86.71
2022-09-12T18:26:56.260Z,86.75
2022-09-12T18:32:04.034Z,86.64001
2022-09-12T18:37:11.263Z,86.91001
2022-09-12T18:42:19.674Z,87.37
2022-09-12T18:47:26.980Z,87.9
2022-09-12T18:52:34.427Z,87.58
2022-09-12T18:57:42.586Z,87.48
2022-09-12T19:02:49.986Z,87.1
2022-09-12T19:07:57.082Z,88.11
2022-09-12T19:13:04.972Z,88.8
2022-09-12T19:18:13.835Z,89.33001
2022-09-12T19:23:23.580Z,89.68
2022-09-12T19:28:31.028Z,90.04001
2022-09-12T19:33:38.904Z,90.35
2022-09-12T19:38:45.442Z,90.79
2022-09-12T19:43:53.267Z,89.73001
2022-09-12T19:49:00.480Z,89.76001
2022-09-12T20:17:24.651Z,90.67
2022-09-12T20:22:30.019Z,91.18
2022-09-12T20:27:43.936Z,91.23
2022-09-12T20:32:50.098Z,91.21
2022-09-12T20:37:57.378Z,91.2
2022-09-12T20:43:04.771Z,91.29001
2022-09-12T20:48:11.780Z,91.76001
2022-09-12T20:53:19.263Z,92.02
2022-09-12T20:58:27.981Z,92.69
2022-09-12T21:03:34.714Z,92.31
2022-09-12T21:08:42.842Z,92.48
2022-09-12T21:13:56.734Z,92.71
2022-09-12T21:19:03.927Z,92.74
2022-09-12T21:24:12.461Z,92.9
2022-09-12T21:29:21.203Z,92.7
2022-09-12T21:34:29.310Z,93.44001
2022-09-12T21:39:37.862Z,93.12
2022-09-12T21:44:45.783Z,92.86
2022-09-12T21:49:52.839Z,93.74
2022-09-12T21:55:00.213Z,93.65001
2022-09-12T22:00:08.213Z,94.01999
2022-09-12T22:05:14.831Z,93.83
2022-09-12T22:10:23.574Z,94.16
2022-09-12T22:15:31.975Z,94.17
2022-09-12T22:20:41.110Z,94.32
2022-09-12T22:25:47.768Z,94.2
2022-09-12T22:30:55.488Z,94.08999
2022-09-12T22:36:03.251Z,94.03
2022-09-12T22:41:10.650Z,94.22
2022-09-12T22:46:18.235Z,93.77
2022-09-12T22:51:25.033Z,93.92
2022-09-12T22:56:32.700Z,94.41001
2022-09-12T23:01:40.329Z,94.84
2022-09-12T23:06:48.100Z,94.18
2022-09-12T23:11:55.593Z,93.97
2022-09-12T23:17:04.444Z,94.92
2022-09-12T23:22:12.099Z,94.66001
2022-09-12T23:27:19.899Z,94.53
2022-09-12T23:32:28.940Z,94.66001
2022-09-12T23:37:37.000Z,94.68
2022-09-12T23:42:45.144Z,94.77
2022-09-12T23:47:51.761Z,94.39
2022-09-12T23:52:58.473Z,94.43
2022-09-12T23:58:06.907Z,94.91
